Aviation Digital Data Service (ADDS)

Output produced by METARs form (1416 UTC 21 August 2019)
found at http://www.aviationweather.gov/metar/data/
 
Forecast for: PAFA (FAIRBANKS , AK, US)
Text: PAFA 211139Z 2112/2218 33005KT P6SM -RA SCT025 BKN040
Forecast period: 1200 to 1800 UTC 21 August 2019
Forecast type: FROM: standard forecast or significant change
Winds: from the NNW (330 degrees) at 6 MPH (5 knots; 2.6 m/s)
Visibility: 6 or more miles 10+ km)
Ceiling: 4000 feet AGL
Clouds: scattered clouds at 2500 feet AGL
broken clouds at 4000 feet AGL
Weather: -RA  (light rain)
Text: TEMPO 2112/2116 5SM -RA BR BKN025
Forecast period: 1200 to 1600 UTC 21 August 2019
Forecast type: TEMPORARY: The following changes expected for less than half the time period
Visibility: 5 miles (8 km)
Ceiling: 2500 feet AGL
Clouds: broken clouds at 2500 feet AGL
Weather: -RA BR  (light rain, mist)
Text: FM211800 25004KT P6SM VCSH SCT025 BKN050
Forecast period: 1800 UTC 21 August 2019 to 1800 UTC 22 August 2019
Forecast type: FROM: standard forecast or significant change
Winds: from the WSW (250 degrees) at 5 MPH (4 knots; 2.1 m/s)
Visibility: 6 or more miles 10+ km)
Ceiling: 5000 feet AGL
Clouds: scattered clouds at 2500 feet AGL
broken clouds at 5000 feet AGL
Weather: VCSH  (showers in vicinity)